sensor_id;sensor_type;location;lat;lon;timestamp;P1;durP1;ratioP1;P2;durP2;ratioP2
20611;SDS011;10465;42.686;23.364;2023-04-29T00:00:38;8.25;;;4.60;;
20611;SDS011;10465;42.686;23.364;2023-04-29T00:03:03;6.53;;;4.57;;
20611;SDS011;10465;42.686;23.364;2023-04-29T00:05:28;8.52;;;4.50;;
20611;SDS011;10465;42.686;23.364;2023-04-29T00:07:54;8.27;;;5.38;;
20611;SDS011;10465;42.686;23.364;2023-04-29T00:10:19;10.02;;;4.85;;
20611;SDS011;10465;42.686;23.364;2023-04-29T00:12:45;7.10;;;4.85;;
20611;SDS011;10465;42.686;23.364;2023-04-29T00:15:11;10.10;;;5.10;;
20611;SDS011;10465;42.686;23.364;2023-04-29T00:17:37;6.60;;;4.68;;
20611;SDS011;10465;42.686;23.364;2023-04-29T00:20:02;9.13;;;4.90;;
20611;SDS011;10465;42.686;23.364;2023-04-29T00:22:28;7.70;;;5.15;;
20611;SDS011;10465;42.686;23.364;2023-04-29T00:24:54;8.77;;;5.68;;
20611;SDS011;10465;42.686;23.364;2023-04-29T00:27:19;6.85;;;5.20;;
20611;SDS011;10465;42.686;23.364;2023-04-29T00:29:44;6.25;;;5.10;;
20611;SDS011;10465;42.686;23.364;2023-04-29T00:32:10;8.35;;;5.03;;
20611;SDS011;10465;42.686;23.364;2023-04-29T00:34:35;10.00;;;5.50;;
20611;SDS011;10465;42.686;23.364;2023-04-29T00:37:01;10.25;;;5.70;;
20611;SDS011;10465;42.686;23.364;2023-04-29T00:39:26;9.20;;;5.78;;
20611;SDS011;10465;42.686;23.364;2023-04-29T00:41:52;9.57;;;6.30;;
20611;SDS011;10465;42.686;23.364;2023-04-29T00:44:17;10.15;;;7.20;;
20611;SDS011;10465;42.686;23.364;2023-04-29T00:46:43;15.55;;;9.80;;
20611;SDS011;10465;42.686;23.364;2023-04-29T00:49:09;14.80;;;8.85;;
20611;SDS011;10465;42.686;23.364;2023-04-29T00:51:36;11.35;;;7.80;;
20611;SDS011;10465;42.686;23.364;2023-04-29T00:54:04;21.73;;;9.10;;
20611;SDS011;10465;42.686;23.364;2023-04-29T00:56:31;10.10;;;7.43;;
20611;SDS011;10465;42.686;23.364;2023-04-29T00:58:59;10.40;;;6.85;;
20611;SDS011;10465;42.686;23.364;2023-04-29T01:01:26;10.73;;;6.68;;
20611;SDS011;10465;42.686;23.364;2023-04-29T01:03:52;11.38;;;6.05;;
20611;SDS011;10465;42.686;23.364;2023-04-29T01:09:34;10.65;;;6.65;;
20611;SDS011;10465;42.686;23.364;2023-04-29T01:12:10;11.40;;;6.05;;
20611;SDS011;10465;42.686;23.364;2023-04-29T01:17:41;6.93;;;5.97;;
20611;SDS011;10465;42.686;23.364;2023-04-29T01:20:12;7.68;;;5.82;;
20611;SDS011;10465;42.686;23.364;2023-04-29T01:22:39;9.93;;;6.65;;
20611;SDS011;10465;42.686;23.364;2023-04-29T01:25:05;10.65;;;6.68;;
20611;SDS011;10465;42.686;23.364;2023-04-29T01:27:36;13.80;;;7.28;;
20611;SDS011;10465;42.686;23.364;2023-04-29T01:40:52;16.67;;;11.40;;
20611;SDS011;10465;42.686;23.364;2023-04-29T01:43:33;14.68;;;9.52;;
20611;SDS011;10465;42.686;23.364;2023-04-29T01:46:03;13.02;;;9.48;;
20611;SDS011;10465;42.686;23.364;2023-04-29T01:48:31;16.27;;;9.40;;
20611;SDS011;10465;42.686;23.364;2023-04-29T01:50:57;14.55;;;9.30;;
20611;SDS011;10465;42.686;23.364;2023-04-29T01:53:22;16.85;;;9.27;;
20611;SDS011;10465;42.686;23.364;2023-04-29T01:55:47;14.10;;;8.57;;
20611;SDS011;10465;42.686;23.364;2023-04-29T01:58:13;12.82;;;8.32;;
20611;SDS011;10465;42.686;23.364;2023-04-29T02:00:38;11.57;;;7.75;;
20611;SDS011;10465;42.686;23.364;2023-04-29T02:03:05;13.85;;;7.35;;
20611;SDS011;10465;42.686;23.364;2023-04-29T02:05:30;10.43;;;7.35;;
20611;SDS011;10465;42.686;23.364;2023-04-29T02:07:58;11.15;;;7.35;;
20611;SDS011;10465;42.686;23.364;2023-04-29T02:10:24;11.65;;;7.43;;
20611;SDS011;10465;42.686;23.364;2023-04-29T02:12:50;10.40;;;7.90;;
20611;SDS011;10465;42.686;23.364;2023-04-29T02:15:16;12.30;;;7.40;;
20611;SDS011;10465;42.686;23.364;2023-04-29T02:17:41;13.40;;;8.02;;
20611;SDS011;10465;42.686;23.364;2023-04-29T02:20:07;11.63;;;8.05;;
20611;SDS011;10465;42.686;23.364;2023-04-29T02:22:34;9.07;;;7.10;;
20611;SDS011;10465;42.686;23.364;2023-04-29T02:24:59;12.13;;;8.00;;
20611;SDS011;10465;42.686;23.364;2023-04-29T02:27:25;13.00;;;7.53;;
20611;SDS011;10465;42.686;23.364;2023-04-29T02:29:50;11.23;;;7.85;;
20611;SDS011;10465;42.686;23.364;2023-04-29T02:32:16;15.70;;;8.05;;
20611;SDS011;10465;42.686;23.364;2023-04-29T02:34:44;12.88;;;8.43;;
20611;SDS011;10465;42.686;23.364;2023-04-29T02:37:10;13.55;;;8.18;;
20611;SDS011;10465;42.686;23.364;2023-04-29T02:39:35;14.43;;;8.73;;
20611;SDS011;10465;42.686;23.364;2023-04-29T02:42:01;11.73;;;7.88;;
20611;SDS011;10465;42.686;23.364;2023-04-29T02:44:27;10.48;;;7.10;;
20611;SDS011;10465;42.686;23.364;2023-04-29T02:46:52;13.60;;;8.23;;
20611;SDS011;10465;42.686;23.364;2023-04-29T02:49:18;11.35;;;7.35;;
20611;SDS011;10465;42.686;23.364;2023-04-29T02:51:44;11.98;;;7.57;;
20611;SDS011;10465;42.686;23.364;2023-04-29T02:54:09;11.23;;;7.38;;
20611;SDS011;10465;42.686;23.364;2023-04-29T02:56:35;9.13;;;6.78;;
20611;SDS011;10465;42.686;23.364;2023-04-29T02:59:01;10.57;;;7.05;;
20611;SDS011;10465;42.686;23.364;2023-04-29T03:01:27;12.35;;;8.20;;
20611;SDS011;10465;42.686;23.364;2023-04-29T03:03:53;11.57;;;6.70;;
20611;SDS011;10465;42.686;23.364;2023-04-29T03:06:19;11.48;;;7.38;;
20611;SDS011;10465;42.686;23.364;2023-04-29T03:08:45;11.85;;;7.28;;
20611;SDS011;10465;42.686;23.364;2023-04-29T03:11:10;11.98;;;7.45;;
20611;SDS011;10465;42.686;23.364;2023-04-29T03:13:36;11.27;;;7.00;;
20611;SDS011;10465;42.686;23.364;2023-04-29T03:16:02;12.18;;;7.57;;
20611;SDS011;10465;42.686;23.364;2023-04-29T03:18:28;12.52;;;7.55;;
20611;SDS011;10465;42.686;23.364;2023-04-29T03:20:53;12.05;;;7.88;;
20611;SDS011;10465;42.686;23.364;2023-04-29T03:23:19;10.32;;;7.57;;
20611;SDS011;10465;42.686;23.364;2023-04-29T03:25:44;10.10;;;7.55;;
20611;SDS011;10465;42.686;23.364;2023-04-29T03:28:10;11.95;;;8.13;;
20611;SDS011;10465;42.686;23.364;2023-04-29T03:30:36;16.23;;;8.20;;
20611;SDS011;10465;42.686;23.364;2023-04-29T03:33:01;13.00;;;7.35;;
20611;SDS011;10465;42.686;23.364;2023-04-29T03:35:26;11.95;;;7.43;;
20611;SDS011;10465;42.686;23.364;2023-04-29T03:37:52;10.93;;;7.35;;
20611;SDS011;10465;42.686;23.364;2023-04-29T03:40:17;12.88;;;7.22;;
20611;SDS011;10465;42.686;23.364;2023-04-29T03:42:43;12.95;;;7.60;;
20611;SDS011;10465;42.686;23.364;2023-04-29T03:45:09;9.70;;;7.40;;
20611;SDS011;10465;42.686;23.364;2023-04-29T03:47:37;11.40;;;7.38;;
20611;SDS011;10465;42.686;23.364;2023-04-29T03:50:02;10.32;;;6.78;;
20611;SDS011;10465;42.686;23.364;2023-04-29T03:52:28;12.65;;;7.45;;
20611;SDS011;10465;42.686;23.364;2023-04-29T03:54:54;11.80;;;7.20;;
20611;SDS011;10465;42.686;23.364;2023-04-29T03:57:19;13.40;;;6.25;;
20611;SDS011;10465;42.686;23.364;2023-04-29T03:59:44;9.50;;;7.00;;
20611;SDS011;10465;42.686;23.364;2023-04-29T04:02:14;13.15;;;7.82;;
20611;SDS011;10465;42.686;23.364;2023-04-29T04:04:40;12.25;;;7.38;;
20611;SDS011;10465;42.686;23.364;2023-04-29T04:07:06;13.70;;;7.03;;
20611;SDS011;10465;42.686;23.364;2023-04-29T04:09:31;9.13;;;6.47;;
20611;SDS011;10465;42.686;23.364;2023-04-29T04:11:57;13.07;;;7.43;;
20611;SDS011;10465;42.686;23.364;2023-04-29T04:14:23;15.27;;;7.65;;
20611;SDS011;10465;42.686;23.364;2023-04-29T04:16:48;13.55;;;7.82;;
20611;SDS011;10465;42.686;23.364;2023-04-29T04:19:15;11.52;;;7.70;;
20611;SDS011;10465;42.686;23.364;2023-04-29T04:21:40;9.95;;;7.45;;
20611;SDS011;10465;42.686;23.364;2023-04-29T04:24:06;13.30;;;8.07;;
20611;SDS011;10465;42.686;23.364;2023-04-29T04:26:32;14.73;;;7.88;;
20611;SDS011;10465;42.686;23.364;2023-04-29T04:28:57;12.50;;;8.23;;
20611;SDS011;10465;42.686;23.364;2023-04-29T04:31:23;11.02;;;7.60;;
20611;SDS011;10465;42.686;23.364;2023-04-29T04:33:49;16.25;;;8.43;;
20611;SDS011;10465;42.686;23.364;2023-04-29T04:36:15;12.02;;;8.10;;
20611;SDS011;10465;42.686;23.364;2023-04-29T04:38:40;12.90;;;8.98;;
20611;SDS011;10465;42.686;23.364;2023-04-29T04:41:06;16.50;;;9.57;;
20611;SDS011;10465;42.686;23.364;2023-04-29T04:43:34;16.05;;;9.35;;
20611;SDS011;10465;42.686;23.364;2023-04-29T04:46:00;13.82;;;8.80;;
20611;SDS011;10465;42.686;23.364;2023-04-29T04:48:34;19.08;;;9.85;;
20611;SDS011;10465;42.686;23.364;2023-04-29T04:51:05;14.75;;;9.10;;
20611;SDS011;10465;42.686;23.364;2023-04-29T04:53:34;13.65;;;9.02;;
20611;SDS011;10465;42.686;23.364;2023-04-29T04:56:00;19.20;;;10.15;;
20611;SDS011;10465;42.686;23.364;2023-04-29T04:58:26;14.50;;;9.55;;
20611;SDS011;10465;42.686;23.364;2023-04-29T05:00:51;16.85;;;10.00;;
20611;SDS011;10465;42.686;23.364;2023-04-29T05:03:17;15.07;;;9.15;;
20611;SDS011;10465;42.686;23.364;2023-04-29T05:05:42;23.15;;;8.63;;
20611;SDS011;10465;42.686;23.364;2023-04-29T05:08:08;12.13;;;8.52;;
20611;SDS011;10465;42.686;23.364;2023-04-29T05:10:36;14.48;;;8.85;;
20611;SDS011;10465;42.686;23.364;2023-04-29T05:13:02;14.68;;;7.63;;
20611;SDS011;10465;42.686;23.364;2023-04-29T05:15:27;15.20;;;8.43;;
20611;SDS011;10465;42.686;23.364;2023-04-29T05:17:53;25.40;;;9.55;;
20611;SDS011;10465;42.686;23.364;2023-04-29T05:20:18;17.27;;;7.75;;
20611;SDS011;10465;42.686;23.364;2023-04-29T05:22:47;16.45;;;8.15;;
20611;SDS011;10465;42.686;23.364;2023-04-29T05:25:13;22.45;;;9.50;;
20611;SDS011;10465;42.686;23.364;2023-04-29T05:27:38;27.90;;;9.32;;
20611;SDS011;10465;42.686;23.364;2023-04-29T05:30:04;19.85;;;9.48;;
20611;SDS011;10465;42.686;23.364;2023-04-29T05:32:30;14.57;;;9.30;;
20611;SDS011;10465;42.686;23.364;2023-04-29T05:34:55;16.60;;;9.15;;
20611;SDS011;10465;42.686;23.364;2023-04-29T05:37:21;14.85;;;9.07;;
20611;SDS011;10465;42.686;23.364;2023-04-29T05:39:46;10.85;;;8.80;;
20611;SDS011;10465;42.686;23.364;2023-04-29T05:42:12;13.45;;;9.02;;
20611;SDS011;10465;42.686;23.364;2023-04-29T05:44:37;15.40;;;8.75;;
20611;SDS011;10465;42.686;23.364;2023-04-29T05:47:03;14.35;;;9.07;;
20611;SDS011;10465;42.686;23.364;2023-04-29T05:49:29;16.27;;;9.88;;
20611;SDS011;10465;42.686;23.364;2023-04-29T05:51:54;12.65;;;8.68;;
20611;SDS011;10465;42.686;23.364;2023-04-29T05:54:20;16.48;;;9.05;;
20611;SDS011;10465;42.686;23.364;2023-04-29T05:56:45;15.82;;;8.85;;
20611;SDS011;10465;42.686;23.364;2023-04-29T05:59:11;11.27;;;7.90;;
20611;SDS011;10465;42.686;23.364;2023-04-29T06:01:36;11.70;;;7.55;;
20611;SDS011;10465;42.686;23.364;2023-04-29T06:04:02;17.77;;;8.50;;
20611;SDS011;10465;42.686;23.364;2023-04-29T06:06:28;13.55;;;9.13;;
20611;SDS011;10465;42.686;23.364;2023-04-29T06:08:54;12.43;;;7.72;;
20611;SDS011;10465;42.686;23.364;2023-04-29T06:11:19;14.35;;;8.10;;
20611;SDS011;10465;42.686;23.364;2023-04-29T06:13:45;10.45;;;7.65;;
20611;SDS011;10465;42.686;23.364;2023-04-29T06:16:10;9.40;;;7.15;;
20611;SDS011;10465;42.686;23.364;2023-04-29T06:18:36;13.93;;;7.78;;
20611;SDS011;10465;42.686;23.364;2023-04-29T06:21:02;12.38;;;7.28;;
20611;SDS011;10465;42.686;23.364;2023-04-29T06:23:27;10.07;;;6.63;;
20611;SDS011;10465;42.686;23.364;2023-04-29T06:25:53;9.70;;;6.38;;
20611;SDS011;10465;42.686;23.364;2023-04-29T06:28:18;11.68;;;6.50;;
20611;SDS011;10465;42.686;23.364;2023-04-29T06:30:44;9.80;;;6.95;;
20611;SDS011;10465;42.686;23.364;2023-04-29T06:33:10;12.80;;;6.50;;
20611;SDS011;10465;42.686;23.364;2023-04-29T06:35:39;9.70;;;6.60;;
20611;SDS011;10465;42.686;23.364;2023-04-29T06:38:05;8.40;;;6.63;;
20611;SDS011;10465;42.686;23.364;2023-04-29T06:40:32;15.13;;;7.28;;
20611;SDS011;10465;42.686;23.364;2023-04-29T06:42:58;12.93;;;7.55;;
20611;SDS011;10465;42.686;23.364;2023-04-29T06:45:24;12.38;;;6.88;;
20611;SDS011;10465;42.686;23.364;2023-04-29T06:47:49;13.32;;;7.20;;
20611;SDS011;10465;42.686;23.364;2023-04-29T06:50:15;10.50;;;7.45;;
20611;SDS011;10465;42.686;23.364;2023-04-29T06:52:40;12.38;;;7.50;;
20611;SDS011;10465;42.686;23.364;2023-04-29T06:55:06;12.88;;;6.70;;
20611;SDS011;10465;42.686;23.364;2023-04-29T06:57:32;10.73;;;7.22;;
20611;SDS011;10465;42.686;23.364;2023-04-29T06:59:58;10.55;;;7.30;;
20611;SDS011;10465;42.686;23.364;2023-04-29T07:02:23;19.85;;;7.72;;
20611;SDS011;10465;42.686;23.364;2023-04-29T07:04:48;9.85;;;7.03;;
20611;SDS011;10465;42.686;23.364;2023-04-29T07:07:14;14.73;;;6.93;;
20611;SDS011;10465;42.686;23.364;2023-04-29T07:09:40;13.30;;;6.60;;
20611;SDS011;10465;42.686;23.364;2023-04-29T07:12:06;12.13;;;7.88;;
20611;SDS011;10465;42.686;23.364;2023-04-29T07:14:31;14.05;;;7.63;;
20611;SDS011;10465;42.686;23.364;2023-04-29T07:16:57;10.35;;;7.50;;
20611;SDS011;10465;42.686;23.364;2023-04-29T07:19:22;14.55;;;7.45;;
20611;SDS011;10465;42.686;23.364;2023-04-29T07:21:48;14.43;;;6.88;;
20611;SDS011;10465;42.686;23.364;2023-04-29T07:24:13;8.02;;;6.78;;
20611;SDS011;10465;42.686;23.364;2023-04-29T07:26:39;11.38;;;8.45;;
20611;SDS011;10465;42.686;23.364;2023-04-29T07:29:04;10.50;;;7.32;;
20611;SDS011;10465;42.686;23.364;2023-04-29T07:31:30;11.52;;;7.25;;
20611;SDS011;10465;42.686;23.364;2023-04-29T07:33:55;9.43;;;7.05;;
20611;SDS011;10465;42.686;23.364;2023-04-29T07:36:21;9.80;;;6.63;;
20611;SDS011;10465;42.686;23.364;2023-04-29T07:38:47;9.73;;;7.55;;
20611;SDS011;10465;42.686;23.364;2023-04-29T07:41:12;10.45;;;6.75;;
20611;SDS011;10465;42.686;23.364;2023-04-29T07:43:38;15.80;;;9.40;;
20611;SDS011;10465;42.686;23.364;2023-04-29T07:46:03;11.70;;;7.68;;
20611;SDS011;10465;42.686;23.364;2023-04-29T07:48:30;10.25;;;7.53;;
20611;SDS011;10465;42.686;23.364;2023-04-29T07:50:55;10.30;;;7.63;;
20611;SDS011;10465;42.686;23.364;2023-04-29T07:53:21;11.60;;;7.15;;
20611;SDS011;10465;42.686;23.364;2023-04-29T07:55:46;10.02;;;7.40;;
20611;SDS011;10465;42.686;23.364;2023-04-29T07:58:12;12.18;;;7.38;;
20611;SDS011;10465;42.686;23.364;2023-04-29T08:00:37;9.25;;;6.57;;
20611;SDS011;10465;42.686;23.364;2023-04-29T08:03:03;10.57;;;6.85;;
20611;SDS011;10465;42.686;23.364;2023-04-29T08:05:28;11.55;;;6.63;;
20611;SDS011;10465;42.686;23.364;2023-04-29T08:07:54;8.95;;;6.05;;
20611;SDS011;10465;42.686;23.364;2023-04-29T08:10:20;12.23;;;6.72;;
20611;SDS011;10465;42.686;23.364;2023-04-29T08:12:49;10.05;;;6.40;;
20611;SDS011;10465;42.686;23.364;2023-04-29T08:15:14;9.27;;;6.20;;
20611;SDS011;10465;42.686;23.364;2023-04-29T08:17:40;9.18;;;6.40;;
20611;SDS011;10465;42.686;23.364;2023-04-29T08:20:06;8.88;;;6.28;;
20611;SDS011;10465;42.686;23.364;2023-04-29T08:22:33;9.25;;;6.35;;
20611;SDS011;10465;42.686;23.364;2023-04-29T08:24:58;8.88;;;5.60;;
20611;SDS011;10465;42.686;23.364;2023-04-29T08:27:24;8.85;;;6.57;;
20611;SDS011;10465;42.686;23.364;2023-04-29T08:29:51;11.15;;;7.05;;
20611;SDS011;10465;42.686;23.364;2023-04-29T08:32:16;11.30;;;6.88;;
20611;SDS011;10465;42.686;23.364;2023-04-29T08:34:42;11.38;;;5.78;;
20611;SDS011;10465;42.686;23.364;2023-04-29T08:37:08;8.90;;;6.18;;
20611;SDS011;10465;42.686;23.364;2023-04-29T08:39:34;10.23;;;6.32;;
20611;SDS011;10465;42.686;23.364;2023-04-29T08:42:00;8.90;;;5.97;;
20611;SDS011;10465;42.686;23.364;2023-04-29T08:44:32;11.95;;;5.57;;
20611;SDS011;10465;42.686;23.364;2023-04-29T08:46:58;9.98;;;5.70;;
20611;SDS011;10465;42.686;23.364;2023-04-29T08:49:26;9.82;;;5.32;;
20611;SDS011;10465;42.686;23.364;2023-04-29T08:51:52;8.63;;;5.50;;
20611;SDS011;10465;42.686;23.364;2023-04-29T08:54:18;7.10;;;5.38;;
20611;SDS011;10465;42.686;23.364;2023-04-29T08:56:44;9.07;;;5.45;;
20611;SDS011;10465;42.686;23.364;2023-04-29T08:59:14;8.95;;;5.03;;
20611;SDS011;10465;42.686;23.364;2023-04-29T09:01:41;7.70;;;4.68;;
20611;SDS011;10465;42.686;23.364;2023-04-29T09:04:08;5.85;;;4.60;;
20611;SDS011;10465;42.686;23.364;2023-04-29T09:06:45;6.43;;;4.40;;
20611;SDS011;10465;42.686;23.364;2023-04-29T09:09:12;8.13;;;4.10;;
20611;SDS011;10465;42.686;23.364;2023-04-29T09:11:39;6.80;;;4.25;;
20611;SDS011;10465;42.686;23.364;2023-04-29T09:14:05;9.25;;;4.50;;
20611;SDS011;10465;42.686;23.364;2023-04-29T09:16:32;7.63;;;4.45;;
20611;SDS011;10465;42.686;23.364;2023-04-29T09:18:59;5.18;;;4.68;;
20611;SDS011;10465;42.686;23.364;2023-04-29T09:21:25;6.35;;;5.25;;
20611;SDS011;10465;42.686;23.364;2023-04-29T09:26:19;7.60;;;4.20;;
20611;SDS011;10465;42.686;23.364;2023-04-29T09:28:45;7.15;;;4.43;;
20611;SDS011;10465;42.686;23.364;2023-04-29T09:31:12;5.60;;;4.00;;
20611;SDS011;10465;42.686;23.364;2023-04-29T09:33:54;7.57;;;5.10;;
20611;SDS011;10465;42.686;23.364;2023-04-29T09:39:23;9.23;;;4.70;;
20611;SDS011;10465;42.686;23.364;2023-04-29T09:44:22;8.95;;;5.50;;
20611;SDS011;10465;42.686;23.364;2023-04-29T09:46:59;7.40;;;5.28;;
20611;SDS011;10465;42.686;23.364;2023-04-29T09:49:27;5.95;;;5.07;;
20611;SDS011;10465;42.686;23.364;2023-04-29T09:52:03;9.77;;;5.55;;
20611;SDS011;10465;42.686;23.364;2023-04-29T09:54:34;8.15;;;5.97;;
20611;SDS011;10465;42.686;23.364;2023-04-29T09:57:01;9.20;;;5.15;;
20611;SDS011;10465;42.686;23.364;2023-04-29T09:59:30;9.65;;;6.18;;
20611;SDS011;10465;42.686;23.364;2023-04-29T10:01:57;11.98;;;6.10;;
20611;SDS011;10465;42.686;23.364;2023-04-29T10:04:26;7.57;;;5.65;;
20611;SDS011;10465;42.686;23.364;2023-04-29T10:06:54;7.85;;;5.47;;
20611;SDS011;10465;42.686;23.364;2023-04-29T10:09:21;7.00;;;4.75;;
20611;SDS011;10465;42.686;23.364;2023-04-29T10:11:48;6.90;;;4.90;;
20611;SDS011;10465;42.686;23.364;2023-04-29T10:14:16;13.13;;;5.43;;
20611;SDS011;10465;42.686;23.364;2023-04-29T10:19:18;9.32;;;5.22;;
20611;SDS011;10465;42.686;23.364;2023-04-29T10:21:50;7.88;;;5.40;;
20611;SDS011;10465;42.686;23.364;2023-04-29T10:24:19;9.63;;;4.65;;
20611;SDS011;10465;42.686;23.364;2023-04-29T10:26:46;9.65;;;5.32;;
20611;SDS011;10465;42.686;23.364;2023-04-29T10:29:16;8.38;;;4.80;;
20611;SDS011;10465;42.686;23.364;2023-04-29T10:31:42;8.88;;;5.13;;
20611;SDS011;10465;42.686;23.364;2023-04-29T10:34:08;11.05;;;5.80;;
20611;SDS011;10465;42.686;23.364;2023-04-29T10:36:35;7.85;;;5.10;;
20611;SDS011;10465;42.686;23.364;2023-04-29T10:39:02;9.32;;;4.90;;
20611;SDS011;10465;42.686;23.364;2023-04-29T10:42:04;9.95;;;4.82;;
20611;SDS011;10465;42.686;23.364;2023-04-29T10:44:23;5.97;;;4.75;;
20611;SDS011;10465;42.686;23.364;2023-04-29T10:46:50;9.00;;;4.63;;
20611;SDS011;10465;42.686;23.364;2023-04-29T10:50:00;7.75;;;4.57;;
20611;SDS011;10465;42.686;23.364;2023-04-29T10:52:27;5.85;;;4.57;;
20611;SDS011;10465;42.686;23.364;2023-04-29T10:55:00;9.25;;;4.30;;
20611;SDS011;10465;42.686;23.364;2023-04-29T10:57:31;5.72;;;3.83;;
20611;SDS011;10465;42.686;23.364;2023-04-29T10:59:57;5.38;;;3.60;;
20611;SDS011;10465;42.686;23.364;2023-04-29T11:02:22;10.18;;;4.13;;
20611;SDS011;10465;42.686;23.364;2023-04-29T11:07:36;5.97;;;3.70;;
20611;SDS011;10465;42.686;23.364;2023-04-29T11:10:02;4.75;;;3.38;;
20611;SDS011;10465;42.686;23.364;2023-04-29T11:12:27;6.00;;;3.75;;
20611;SDS011;10465;42.686;23.364;2023-04-29T11:14:53;7.38;;;3.05;;
20611;SDS011;10465;42.686;23.364;2023-04-29T11:17:27;7.63;;;3.13;;
20611;SDS011;10465;42.686;23.364;2023-04-29T11:20:00;6.97;;;3.25;;
20611;SDS011;10465;42.686;23.364;2023-04-29T11:22:26;7.00;;;2.83;;
20611;SDS011;10465;42.686;23.364;2023-04-29T11:27:34;5.32;;;3.20;;
20611;SDS011;10465;42.686;23.364;2023-04-29T11:30:01;5.60;;;2.65;;
20611;SDS011;10465;42.686;23.364;2023-04-29T11:32:32;3.97;;;2.50;;
20611;SDS011;10465;42.686;23.364;2023-04-29T11:35:12;8.88;;;2.95;;
20611;SDS011;10465;42.686;23.364;2023-04-29T11:37:39;6.90;;;3.72;;
20611;SDS011;10465;42.686;23.364;2023-04-29T11:40:07;5.55;;;3.20;;
20611;SDS011;10465;42.686;23.364;2023-04-29T11:42:34;4.28;;;2.97;;
20611;SDS011;10465;42.686;23.364;2023-04-29T11:45:01;5.15;;;2.85;;
20611;SDS011;10465;42.686;23.364;2023-04-29T11:47:27;5.82;;;2.75;;
20611;SDS011;10465;42.686;23.364;2023-04-29T11:49:57;5.65;;;2.70;;
20611;SDS011;10465;42.686;23.364;2023-04-29T11:52:27;3.58;;;2.38;;
20611;SDS011;10465;42.686;23.364;2023-04-29T11:54:53;2.50;;;2.30;;
20611;SDS011;10465;42.686;23.364;2023-04-29T11:57:18;3.92;;;2.45;;
20611;SDS011;10465;42.686;23.364;2023-04-29T11:59:45;2.83;;;2.35;;
20611;SDS011;10465;42.686;23.364;2023-04-29T12:02:11;6.35;;;2.55;;
20611;SDS011;10465;42.686;23.364;2023-04-29T12:04:47;4.05;;;2.83;;
20611;SDS011;10465;42.686;23.364;2023-04-29T12:07:15;3.28;;;2.28;;
20611;SDS011;10465;42.686;23.364;2023-04-29T12:09:44;5.47;;;2.30;;
20611;SDS011;10465;42.686;23.364;2023-04-29T12:12:11;3.58;;;2.55;;
20611;SDS011;10465;42.686;23.364;2023-04-29T12:14:37;3.80;;;2.40;;
20611;SDS011;10465;42.686;23.364;2023-04-29T12:17:04;3.35;;;2.42;;
20611;SDS011;10465;42.686;23.364;2023-04-29T12:19:30;3.78;;;2.70;;
20611;SDS011;10465;42.686;23.364;2023-04-29T12:21:59;8.98;;;2.63;;
20611;SDS011;10465;42.686;23.364;2023-04-29T12:24:26;3.50;;;2.30;;
20611;SDS011;10465;42.686;23.364;2023-04-29T12:26:53;5.50;;;2.17;;
20611;SDS011;10465;42.686;23.364;2023-04-29T12:29:20;3.65;;;2.30;;
20611;SDS011;10465;42.686;23.364;2023-04-29T12:31:49;3.33;;;2.53;;
20611;SDS011;10465;42.686;23.364;2023-04-29T12:34:15;4.25;;;2.40;;
20611;SDS011;10465;42.686;23.364;2023-04-29T12:36:41;4.43;;;2.17;;
20611;SDS011;10465;42.686;23.364;2023-04-29T12:39:07;2.30;;;2.03;;
20611;SDS011;10465;42.686;23.364;2023-04-29T12:41:41;5.30;;;2.50;;
20611;SDS011;10465;42.686;23.364;2023-04-29T12:44:07;7.47;;;2.25;;
20611;SDS011;10465;42.686;23.364;2023-04-29T12:46:38;3.95;;;2.83;;
20611;SDS011;10465;42.686;23.364;2023-04-29T12:49:04;5.13;;;2.40;;
20611;SDS011;10465;42.686;23.364;2023-04-29T12:51:31;7.53;;;2.72;;
20611;SDS011;10465;42.686;23.364;2023-04-29T12:54:03;3.67;;;2.40;;
20611;SDS011;10465;42.686;23.364;2023-04-29T12:56:31;3.75;;;2.30;;
20611;SDS011;10465;42.686;23.364;2023-04-29T12:59:06;3.97;;;2.17;;
20611;SDS011;10465;42.686;23.364;2023-04-29T13:01:34;4.82;;;2.08;;
20611;SDS011;10465;42.686;23.364;2023-04-29T13:04:00;3.88;;;2.03;;
20611;SDS011;10465;42.686;23.364;2023-04-29T13:06:25;3.25;;;2.50;;
20611;SDS011;10465;42.686;23.364;2023-04-29T13:08:51;3.60;;;2.40;;
20611;SDS011;10465;42.686;23.364;2023-04-29T13:11:16;4.32;;;2.30;;
20611;SDS011;10465;42.686;23.364;2023-04-29T13:13:42;6.18;;;2.30;;
20611;SDS011;10465;42.686;23.364;2023-04-29T13:16:07;6.00;;;2.45;;
20611;SDS011;10465;42.686;23.364;2023-04-29T13:18:34;3.95;;;2.60;;
20611;SDS011;10465;42.686;23.364;2023-04-29T13:21:00;4.32;;;2.80;;
20611;SDS011;10465;42.686;23.364;2023-04-29T13:23:25;3.65;;;2.70;;
20611;SDS011;10465;42.686;23.364;2023-04-29T13:25:51;3.35;;;2.28;;
20611;SDS011;10465;42.686;23.364;2023-04-29T13:28:17;6.47;;;2.40;;
20611;SDS011;10465;42.686;23.364;2023-04-29T13:30:42;3.72;;;2.20;;
20611;SDS011;10465;42.686;23.364;2023-04-29T13:33:08;2.95;;;2.28;;
20611;SDS011;10465;42.686;23.364;2023-04-29T13:35:33;5.60;;;2.63;;
20611;SDS011;10465;42.686;23.364;2023-04-29T13:38:02;5.53;;;2.42;;
20611;SDS011;10465;42.686;23.364;2023-04-29T13:40:28;5.60;;;2.15;;
20611;SDS011;10465;42.686;23.364;2023-04-29T13:42:53;5.03;;;2.50;;
20611;SDS011;10465;42.686;23.364;2023-04-29T13:45:19;3.60;;;2.20;;
20611;SDS011;10465;42.686;23.364;2023-04-29T13:47:44;5.15;;;2.22;;
20611;SDS011;10465;42.686;23.364;2023-04-29T13:50:10;4.22;;;2.38;;
20611;SDS011;10465;42.686;23.364;2023-04-29T13:52:37;2.28;;;1.80;;
20611;SDS011;10465;42.686;23.364;2023-04-29T13:55:02;5.22;;;1.98;;
20611;SDS011;10465;42.686;23.364;2023-04-29T13:57:28;2.83;;;2.00;;
20611;SDS011;10465;42.686;23.364;2023-04-29T13:59:53;3.83;;;2.00;;
20611;SDS011;10465;42.686;23.364;2023-04-29T14:02:20;5.93;;;2.20;;
20611;SDS011;10465;42.686;23.364;2023-04-29T14:04:45;3.83;;;2.03;;
20611;SDS011;10465;42.686;23.364;2023-04-29T14:07:12;4.53;;;2.38;;
20611;SDS011;10465;42.686;23.364;2023-04-29T14:09:38;4.40;;;2.35;;
20611;SDS011;10465;42.686;23.364;2023-04-29T14:12:04;4.53;;;1.92;;
20611;SDS011;10465;42.686;23.364;2023-04-29T14:14:29;4.15;;;2.42;;
20611;SDS011;10465;42.686;23.364;2023-04-29T14:16:55;3.75;;;2.10;;
20611;SDS011;10465;42.686;23.364;2023-04-29T14:19:20;3.50;;;2.30;;
20611;SDS011;10465;42.686;23.364;2023-04-29T14:21:46;2.78;;;2.45;;
20611;SDS011;10465;42.686;23.364;2023-04-29T14:24:11;4.72;;;2.60;;
20611;SDS011;10465;42.686;23.364;2023-04-29T14:26:37;2.95;;;2.25;;
20611;SDS011;10465;42.686;23.364;2023-04-29T14:29:02;2.28;;;2.08;;
20611;SDS011;10465;42.686;23.364;2023-04-29T14:31:29;2.90;;;1.90;;
20611;SDS011;10465;42.686;23.364;2023-04-29T14:33:58;2.30;;;1.98;;
20611;SDS011;10465;42.686;23.364;2023-04-29T14:36:24;2.33;;;2.13;;
20611;SDS011;10465;42.686;23.364;2023-04-29T14:38:53;3.20;;;1.88;;
20611;SDS011;10465;42.686;23.364;2023-04-29T14:41:18;2.47;;;2.00;;
20611;SDS011;10465;42.686;23.364;2023-04-29T14:43:45;3.17;;;2.22;;
20611;SDS011;10465;42.686;23.364;2023-04-29T14:46:11;3.20;;;2.20;;
20611;SDS011;10465;42.686;23.364;2023-04-29T14:48:36;4.45;;;2.40;;
20611;SDS011;10465;42.686;23.364;2023-04-29T14:51:02;3.65;;;1.85;;
20611;SDS011;10465;42.686;23.364;2023-04-29T14:53:28;2.60;;;1.88;;
20611;SDS011;10465;42.686;23.364;2023-04-29T14:55:53;2.55;;;2.08;;
20611;SDS011;10465;42.686;23.364;2023-04-29T14:58:19;3.00;;;2.05;;